Time;durP1;ratioP1;P1;durP2;ratioP2;P2;SDS_P1;SDS_P2;PMS_P1;PMS_P2;Temp;Humidity;BMP_temperature;BMP_pressure;BME280_temperature;BME280_humidity;BME280_pressure;Samples;Min_cycle;Max_cycle;Signal;HPM_P1;HPM_P2
2022/01/26 00:00:18;;;;;;;35.83;10.38;;;;;;;2.56;73.99;101903.91;5027584;28;20057;-58
2022/01/26 00:05:50;;;;;;;41.50;10.90;;;;;;;2.59;74.01;101881.84;5021024;28;20050;-53
2022/01/26 00:08:22;;;;;;;31.10;9.40;;;;;;;2.60;73.59;101881.06;5027349;28;20046;-55
2022/01/26 00:10:49;;;;;;;47.25;11.52;;;;;;;2.62;73.91;101871.78;5026683;28;20053;-56
2022/01/26 00:13:16;;;;;;;44.97;10.73;;;;;;;2.63;73.84;101869.34;5029024;28;20094;-55
2022/01/26 00:15:43;;;;;;;40.85;11.15;;;;;;;2.65;73.09;101867.75;5026467;28;20045;-53
2022/01/26 00:18:09;;;;;;;31.70;10.25;;;;;;;2.65;74.18;101867.75;5023562;28;20054;-54
2022/01/26 00:20:44;;;;;;;35.58;10.40;;;;;;;2.67;74.43;101860.19;5019666;28;20083;-59
2022/01/26 00:23:48;;;;;;;38.85;10.85;;;;;;;2.68;73.38;101851.69;5022256;28;20046;-59
2022/01/26 00:26:08;;;;;;;43.28;12.77;;;;;;;2.69;73.32;101856.03;5032175;28;20052;-53
2022/01/26 00:28:58;;;;;;;34.83;10.40;;;;;;;2.70;74.41;101860.34;5026006;28;20156;-54
2022/01/26 00:39:41;;;;;;;36.05;10.75;;;;;;;2.77;73.38;101836.88;5042470;28;20072;-56
2022/01/26 00:42:08;;;;;;;33.78;11.15;;;;;;;2.78;73.98;101833.53;5027326;28;20045;-54
2022/01/26 00:44:43;;;;;;;37.58;11.38;;;;;;;2.79;73.30;101829.28;5025074;28;20059;-56
2022/01/26 00:47:10;;;;;;;40.97;10.35;;;;;;;2.78;73.98;101828.44;5025839;28;20037;-57
2022/01/26 00:49:37;;;;;;;41.38;12.05;;;;;;;2.78;73.27;101838.66;5025567;28;20057;-57
2022/01/26 00:52:06;;;;;;;34.70;12.30;;;;;;;2.80;74.36;101831.94;5025536;28;20072;-54
2022/01/26 00:54:33;;;;;;;39.60;11.73;;;;;;;2.80;73.76;101828.47;5027560;28;20050;-58
2022/01/26 00:56:59;;;;;;;39.45;11.20;;;;;;;2.82;74.84;101826.91;5026420;28;20057;-59
2022/01/26 00:59:26;;;;;;;37.55;10.88;;;;;;;2.79;74.30;101830.19;5028895;28;20049;-59
2022/01/26 01:01:55;;;;;;;31.35;11.60;;;;;;;2.83;74.68;101821.88;5026888;28;20611;-55
2022/01/26 01:04:22;;;;;;;32.80;10.00;;;;;;;2.82;73.65;101815.00;5029036;28;20045;-55
2022/01/26 01:06:55;;;;;;;33.47;9.98;;;;;;;2.83;73.31;101803.97;5026228;28;20042;-56
2022/01/26 01:09:24;;;;;;;35.00;10.07;;;;;;;2.82;74.02;101799.66;5030359;28;20497;-54
2022/01/26 01:11:55;;;;;;;30.52;10.70;;;;;;;2.79;74.94;101796.91;5026632;28;20041;-55
2022/01/26 01:14:23;;;;;;;37.92;11.35;;;;;;;2.79;74.76;101803.69;5028738;28;20160;-58
2022/01/26 01:16:51;;;;;;;35.63;11.15;;;;;;;2.74;73.66;101806.00;5026737;28;20130;-59
2022/01/26 01:22:28;;;;;;;40.30;11.57;;;;;;;2.76;74.24;101804.41;5027229;28;20053;-56
2022/01/26 01:27:57;;;;;;;33.00;11.23;;;;;;;2.76;73.85;101804.41;5040826;28;20435;-56
2022/01/26 01:30:31;;;;;;;38.83;10.88;;;;;;;2.78;74.25;101812.19;5027794;28;20069;-56
2022/01/26 01:35:44;;;;;;;33.38;9.80;;;;;;;2.79;74.05;101821.63;5028079;28;20049;-55
2022/01/26 01:38:15;;;;;;;39.30;9.80;;;;;;;2.79;74.17;101819.06;5026832;28;20045;-56
2022/01/26 01:40:45;;;;;;;39.72;11.80;;;;;;;2.79;74.19;101819.94;5027279;28;20127;-57
2022/01/26 01:43:13;;;;;;;36.03;10.27;;;;;;;2.79;74.79;101819.94;5029171;28;20051;-56
2022/01/26 01:45:44;;;;;;;37.97;9.73;;;;;;;2.78;74.71;101812.19;5027263;28;20057;-55
2022/01/26 01:48:13;;;;;;;28.90;9.15;;;;;;;2.78;73.78;101819.84;5027580;28;20068;-56
2022/01/26 01:50:41;;;;;;;34.13;9.85;;;;;;;2.77;74.00;101816.41;5024190;28;20114;-56
2022/01/26 01:53:09;;;;;;;38.03;10.32;;;;;;;2.78;75.15;101828.44;5032049;28;20500;-58
2022/01/26 01:55:39;;;;;;;34.15;10.25;;;;;;;2.75;74.16;101828.25;5026222;28;20286;-56
2022/01/26 01:58:07;;;;;;;33.88;10.25;;;;;;;2.71;73.99;101818.63;5029345;28;20201;-52
2022/01/26 02:00:34;;;;;;;32.03;9.27;;;;;;;2.66;75.06;101822.56;5022709;28;20124;-60
2022/01/26 02:03:01;;;;;;;25.65;9.48;;;;;;;2.63;74.45;101817.31;5025097;28;20115;-57
2022/01/26 02:05:28;;;;;;;35.58;8.98;;;;;;;2.56;74.14;101816.94;5027554;28;20419;-54
2022/01/26 02:07:55;;;;;;;33.53;8.20;;;;;;;2.51;75.31;101826.03;5027757;28;20053;-58
2022/01/26 02:10:24;;;;;;;29.35;8.85;;;;;;;2.47;74.55;101818.06;5028777;28;20053;-51
2022/01/26 02:12:56;;;;;;;31.58;9.77;;;;;;;2.40;74.35;101804.91;5024671;28;20100;-52
2022/01/26 02:15:30;;;;;;;32.05;8.68;;;;;;;2.35;74.27;101806.31;5026417;28;20115;-58
2022/01/26 02:21:18;;;;;;;34.15;8.70;;;;;;;2.23;73.71;101819.22;5025136;28;20057;-54
2022/01/26 02:51:34;;;;;;;29.77;9.60;;;;;;;1.81;75.01;101809.06;5038148;28;20464;-55
2022/01/26 02:57:05;;;;;;;22.92;7.57;;;;;;;1.73;75.78;101803.50;5036924;28;20041;-58
2022/01/26 02:59:52;;;;;;;27.05;7.63;;;;;;;1.70;75.14;101808.41;5022653;28;20057;-52
2022/01/26 03:02:29;;;;;;;35.33;7.80;;;;;;;1.67;75.41;101798.00;5035528;28;20731;-58
2022/01/26 03:04:59;;;;;;;22.42;7.88;;;;;;;1.64;75.51;101785.00;5023400;28;20045;-60
2022/01/26 03:07:47;;;;;;;32.88;9.30;;;;;;;1.63;75.55;101773.03;5023091;28;20041;-57
2022/01/26 03:10:21;;;;;;;27.92;8.18;;;;;;;1.57;74.87;101781.22;5026777;28;20049;-59
2022/01/26 03:12:55;;;;;;;28.83;7.53;;;;;;;1.53;75.00;101782.66;5020035;28;20103;-58
2022/01/26 03:15:28;;;;;;;34.85;9.27;;;;;;;1.51;76.01;101788.47;5021578;28;20088;-58
2022/01/26 03:18:19;;;;;;;29.52;10.43;;;;;;;1.48;74.82;101786.63;5023404;28;20363;-56
2022/01/26 03:20:44;;;;;;;28.02;7.15;;;;;;;1.47;74.66;101795.06;5021226;28;20056;-58
2022/01/26 03:28:57;;;;;;;21.92;6.90;;;;;;;1.41;74.96;101804.91;5035792;28;20073;-56
2022/01/26 03:34:14;;;;;;;25.13;7.53;;;;;;;1.37;75.74;101829.38;5022886;28;20045;-57
2022/01/26 03:36:48;;;;;;;34.22;7.22;;;;;;;1.36;75.29;101831.81;5023791;28;20771;-54
2022/01/26 03:39:18;;;;;;;25.83;7.63;;;;;;;1.35;74.64;101819.84;5025319;28;20119;-58
2022/01/26 03:44:33;;;;;;;28.92;8.25;;;;;;;1.31;75.58;101805.13;5034271;28;20057;-56
2022/01/26 03:47:00;;;;;;;27.88;9.20;;;;;;;1.33;75.11;101800.97;5023402;28;20050;-55
2022/01/26 03:49:27;;;;;;;30.13;8.85;;;;;;;1.35;75.66;101810.50;5021212;28;20053;-57
2022/01/26 03:51:54;;;;;;;36.20;9.20;;;;;;;1.37;76.04;101802.94;5024093;28;20057;-58
2022/01/26 03:54:21;;;;;;;31.40;8.23;;;;;;;1.40;76.45;101804.03;5024703;28;20111;-60
2022/01/26 03:56:48;;;;;;;30.02;8.93;;;;;;;1.43;75.51;101807.53;5021450;28;20057;-55
2022/01/26 03:59:15;;;;;;;32.28;9.77;;;;;;;1.44;75.60;101812.75;5021922;28;20065;-55
2022/01/26 04:01:41;;;;;;;30.98;8.82;;;;;;;1.48;75.37;101812.16;5021321;28;20042;-57
2022/01/26 04:04:08;;;;;;;35.25;9.20;;;;;;;1.51;76.32;101801.25;5027351;28;20060;-56
2022/01/26 04:06:35;;;;;;;34.45;9.35;;;;;;;1.51;75.56;101791.91;5024118;28;20060;-55
2022/01/26 04:09:06;;;;;;;31.05;8.98;;;;;;;1.49;75.67;101788.38;5028694;28;20080;-59
2022/01/26 04:11:36;;;;;;;30.60;9.25;;;;;;;1.48;76.19;101791.72;5026460;28;20123;-57
2022/01/26 04:14:06;;;;;;;31.35;9.23;;;;;;;1.44;76.01;101784.66;5024933;28;20053;-57
2022/01/26 04:16:34;;;;;;;26.27;7.60;;;;;;;1.40;75.71;101783.59;5027835;28;20041;-59
2022/01/26 04:19:01;;;;;;;27.50;7.38;;;;;;;1.39;75.82;101780.94;5026395;28;20041;-53
2022/01/26 04:24:21;;;;;;;26.98;8.73;;;;;;;1.35;76.00;101766.22;5000319;28;20552;-60
2022/01/26 04:26:54;;;;;;;25.63;6.50;;;;;;;1.34;76.62;101767.00;5008395;28;20732;-57
2022/01/26 04:29:26;;;;;;;27.27;7.80;;;;;;;1.33;75.56;101760.13;5007427;28;21029;-58
2022/01/26 04:31:53;;;;;;;29.35;7.22;;;;;;;1.32;75.91;101763.47;5009274;28;20646;-54
2022/01/26 04:34:22;;;;;;;29.77;8.38;;;;;;;1.32;75.62;101771.13;5009205;28;20068;-59
2022/01/26 04:36:55;;;;;;;29.45;8.70;;;;;;;1.32;75.94;101779.66;5007490;28;20112;-59
2022/01/26 04:39:28;;;;;;;29.02;7.63;;;;;;;1.33;75.98;101785.66;5006967;28;20037;-59
2022/01/26 04:42:04;;;;;;;30.42;8.23;;;;;;;1.35;75.79;101784.09;5008080;28;20080;-56
2022/01/26 04:44:37;;;;;;;27.77;7.15;;;;;;;1.36;76.21;101796.06;5007513;28;20514;-58
2022/01/26 04:47:04;;;;;;;24.40;6.60;;;;;;;1.39;76.69;101801.38;5010649;28;20108;-54
2022/01/26 04:49:33;;;;;;;32.35;7.93;;;;;;;1.44;76.09;101794.88;5010561;28;20042;-56
2022/01/26 04:52:01;;;;;;;27.40;7.45;;;;;;;1.48;76.95;101790.84;5008178;28;20058;-56
2022/01/26 04:54:28;;;;;;;29.33;8.75;;;;;;;1.51;76.36;101796.13;5005702;28;20103;-55
2022/01/26 04:56:54;;;;;;;28.75;7.85;;;;;;;1.53;76.14;101808.22;5007444;28;20073;-57
2022/01/26 04:59:21;;;;;;;23.48;7.35;;;;;;;1.57;76.70;101810.97;5007759;28;20057;-59
2022/01/26 05:01:47;;;;;;;25.90;7.20;;;;;;;1.57;75.84;101816.06;5003049;28;20062;-54
2022/01/26 05:04:14;;;;;;;29.85;7.80;;;;;;;1.59;76.20;101810.25;5006898;28;20548;-57
2022/01/26 05:06:41;;;;;;;27.33;7.75;;;;;;;1.62;76.41;101801.94;5005001;28;20096;-58
2022/01/26 05:09:07;;;;;;;24.77;8.18;;;;;;;1.64;76.53;101806.34;5026719;28;20568;-57
2022/01/26 05:11:37;;;;;;;21.83;7.05;;;;;;;1.68;75.96;101809.97;5026324;28;20041;-57
2022/01/26 05:14:04;;;;;;;29.55;8.00;;;;;;;1.72;76.98;101804.25;5022757;28;20060;-57
2022/01/26 05:16:31;;;;;;;35.53;8.05;;;;;;;1.74;75.95;101800.13;5024874;28;20571;-57
2022/01/26 05:18:58;;;;;;;24.63;6.97;;;;;;;1.78;77.22;101802.09;5025647;28;20049;-58
2022/01/26 05:21:29;;;;;;;26.40;7.15;;;;;;;1.86;76.06;101806.78;5026658;28;20076;-56
2022/01/26 05:23:56;;;;;;;30.00;8.60;;;;;;;1.90;75.90;101806.19;5026414;28;20049;-58
2022/01/26 05:26:23;;;;;;;27.92;7.90;;;;;;;1.93;76.36;101791.06;5024477;28;20053;-55
2022/01/26 05:28:50;;;;;;;31.35;8.07;;;;;;;1.97;76.63;101797.22;5032195;28;20045;-56
2022/01/26 05:31:16;;;;;;;30.63;7.80;;;;;;;2.01;75.61;101794.06;5025919;28;20681;-56
2022/01/26 05:33:43;;;;;;;25.75;7.30;;;;;;;2.01;77.13;101794.94;5027084;28;20564;-51
2022/01/26 05:36:10;;;;;;;27.15;8.35;;;;;;;2.04;75.94;101790.03;5025544;28;20176;-56
2022/01/26 05:38:37;;;;;;;28.65;8.00;;;;;;;2.05;76.53;101789.22;5024708;28;20119;-56
2022/01/26 05:41:04;;;;;;;28.30;7.68;;;;;;;2.09;76.29;101787.72;5027203;28;20045;-55
2022/01/26 05:43:32;;;;;;;25.67;7.25;;;;;;;2.12;75.91;101790.47;5024162;28;20570;-55
2022/01/26 05:46:05;;;;;;;27.92;7.38;;;;;;;2.16;76.49;101786.44;5025461;28;20114;-57
2022/01/26 05:48:34;;;;;;;32.17;8.15;;;;;;;2.21;76.67;101786.69;5024625;28;20060;-57
2022/01/26 05:51:06;;;;;;;26.70;6.45;;;;;;;2.24;76.01;101785.22;5024551;28;20111;-54
2022/01/26 05:53:34;;;;;;;26.38;8.07;;;;;;;2.26;76.61;101786.19;5023406;28;20049;-59
2022/01/26 05:56:02;;;;;;;30.40;8.35;;;;;;;2.30;76.83;101792.38;5026088;28;20053;-55
2022/01/26 05:58:29;;;;;;;25.70;7.78;;;;;;;2.35;76.78;101795.19;5030178;28;20045;-59
2022/01/26 06:00:58;;;;;;;35.67;8.73;;;;;;;2.39;76.24;101799.69;5025136;28;20053;-54
2022/01/26 06:03:26;;;;;;;31.20;8.38;;;;;;;2.41;76.50;101782.78;5026604;28;20051;-58
2022/01/26 06:05:54;;;;;;;28.73;7.75;;;;;;;2.43;75.97;101783.72;5023166;28;20065;-58
2022/01/26 06:08:21;;;;;;;24.88;7.90;;;;;;;2.43;76.29;101778.63;5022609;28;20088;-57
2022/01/26 06:10:49;;;;;;;30.65;8.48;;;;;;;2.41;76.00;101776.00;5025845;28;20045;-58
2022/01/26 06:13:16;;;;;;;29.27;8.30;;;;;;;2.41;76.07;101777.66;5024029;28;20112;-53
2022/01/26 06:15:43;;;;;;;25.27;8.23;;;;;;;2.42;75.46;101781.97;5025888;28;20049;-59
2022/01/26 06:18:11;;;;;;;32.15;9.25;;;;;;;2.42;75.09;101781.97;5023933;28;20042;-54
2022/01/26 06:20:38;;;;;;;29.88;8.93;;;;;;;2.44;75.28;101785.50;5025189;28;20049;-56
2022/01/26 06:23:05;;;;;;;26.98;8.70;;;;;;;2.44;75.85;101790.63;5024274;28;20076;-57
2022/01/26 06:25:33;;;;;;;34.92;8.95;;;;;;;2.44;75.41;101795.75;5025783;28;20387;-53
2022/01/26 06:28:01;;;;;;;25.95;7.82;;;;;;;2.45;76.46;101805.19;5028399;28;20050;-58
2022/01/26 06:30:28;;;;;;;28.10;8.27;;;;;;;2.45;76.90;101807.75;5028504;28;20057;-54
2022/01/26 06:32:55;;;;;;;27.85;8.02;;;;;;;2.47;75.63;101801.06;5022184;28;20797;-55
2022/01/26 06:35:23;;;;;;;29.77;9.68;;;;;;;2.48;75.46;101804.47;5023363;28;20445;-58
2022/01/26 06:37:49;;;;;;;30.67;8.52;;;;;;;2.48;76.18;101807.94;5024645;28;20045;-57
2022/01/26 06:40:16;;;;;;;27.48;8.07;;;;;;;2.52;75.58;101807.31;5029371;28;20050;-58
2022/01/26 06:42:54;;;;;;;28.25;7.45;;;;;;;2.53;76.17;101806.50;5025311;28;20057;-57
2022/01/26 06:45:25;;;;;;;30.17;7.47;;;;;;;2.56;75.49;101806.69;5025641;28;20049;-60
2022/01/26 06:48:13;;;;;;;28.00;8.20;;;;;;;2.59;75.89;101805.09;5026678;28;20107;-56
2022/01/26 06:50:40;;;;;;;30.23;8.13;;;;;;;2.60;75.35;101788.97;5034951;28;20049;-56
2022/01/26 06:53:07;;;;;;;30.98;9.27;;;;;;;2.62;76.92;101784.81;5025216;28;20572;-56
2022/01/26 06:55:35;;;;;;;24.88;7.50;;;;;;;2.62;75.47;101777.13;5025219;28;20044;-57
2022/01/26 06:58:01;;;;;;;24.25;7.90;;;;;;;2.62;76.76;101777.13;5024021;28;20045;-60
2022/01/26 07:00:28;;;;;;;28.50;8.05;;;;;;;2.62;76.08;101779.69;5022741;28;20051;-58
2022/01/26 07:02:55;;;;;;;28.42;8.70;;;;;;;2.62;77.22;101782.25;5019316;28;20065;-56
2022/01/26 07:05:22;;;;;;;26.08;7.72;;;;;;;2.64;75.95;101783.22;5023683;28;20077;-58
2022/01/26 07:07:49;;;;;;;28.38;8.82;;;;;;;2.65;77.02;101796.13;5026839;28;20057;-60
2022/01/26 07:10:17;;;;;;;27.98;8.25;;;;;;;2.68;76.44;101805.66;5027699;28;20049;-54
2022/01/26 07:12:43;;;;;;;36.35;11.85;;;;;;;2.70;76.01;101819.41;5023506;28;20504;-57
2022/01/26 07:21:25;;;;;;;30.33;10.55;;;;;;;2.78;76.95;101813.06;5034360;28;20370;-56
2022/01/26 07:23:40;;;;;;;49.13;18.90;;;;;;;2.79;76.00;101813.94;5022669;28;20107;-56
2022/01/26 07:26:07;;;;;;;134.30;49.47;;;;;;;2.81;76.64;101822.59;5024049;28;20456;-57
2022/01/26 07:28:37;;;;;;;80.35;29.88;;;;;;;2.83;76.66;101815.88;5025995;28;20091;-52
2022/01/26 07:31:08;;;;;;;35.80;13.23;;;;;;;2.85;76.39;101824.53;5025137;28;20068;-55
2022/01/26 07:33:35;;;;;;;38.45;13.63;;;;;;;2.88;75.71;101818.72;5022163;28;20115;-55
2022/01/26 07:36:02;;;;;;;32.90;10.95;;;;;;;2.91;76.05;101822.31;5025445;28;20041;-56
2022/01/26 07:38:31;;;;;;;34.10;10.07;;;;;;;2.93;75.54;101814.72;5026228;28;20045;-55
2022/01/26 07:40:58;;;;;;;35.95;12.40;;;;;;;2.94;76.22;101812.25;5033900;28;20520;-57
2022/01/26 07:43:25;;;;;;;32.10;10.35;;;;;;;2.97;76.30;101814.09;5031095;28;20045;-57
2022/01/26 07:45:52;;;;;;;37.65;10.18;;;;;;;2.98;76.05;101818.44;5029572;28;20056;-58
2022/01/26 07:48:19;;;;;;;32.13;10.70;;;;;;;2.99;76.26;101812.53;5030548;28;20049;-56
2022/01/26 07:50:45;;;;;;;28.55;10.27;;;;;;;3.01;75.96;101815.19;5022531;28;20053;-56
2022/01/26 07:53:16;;;;;;;27.90;9.38;;;;;;;3.03;76.89;101814.47;5031324;28;20052;-56
2022/01/26 07:55:43;;;;;;;30.23;9.52;;;;;;;3.05;76.42;101806.88;5021773;28;20053;-55
2022/01/26 07:58:10;;;;;;;29.75;10.73;;;;;;;3.08;76.30;101801.94;5027458;28;20053;-58
2022/01/26 08:00:37;;;;;;;31.02;9.27;;;;;;;3.11;76.42;101806.34;5025121;28;24051;-55
2022/01/26 08:03:04;;;;;;;36.53;11.38;;;;;;;3.12;76.32;101797.84;5028718;28;20054;-58
2022/01/26 08:05:32;;;;;;;31.50;10.35;;;;;;;3.15;76.25;101798.03;5025909;28;20049;-56
2022/01/26 08:07:59;;;;;;;37.60;10.65;;;;;;;3.17;76.02;101801.53;5028265;28;20050;-57
2022/01/26 08:10:25;;;;;;;35.63;10.93;;;;;;;3.21;76.85;101806.06;5030048;28;20056;-55
2022/01/26 08:12:52;;;;;;;44.00;13.13;;;;;;;3.23;76.34;101807.00;5027589;28;20061;-54
2022/01/26 08:15:23;;;;;;;55.10;17.20;;;;;;;3.26;75.74;101804.63;5028787;28;20053;-57
2022/01/26 08:17:50;;;;;;;47.15;15.27;;;;;;;3.29;75.56;101798.78;5025574;28;20072;-58
2022/01/26 08:20:17;;;;;;;29.17;9.90;;;;;;;3.31;76.67;101795.50;5032132;28;20053;-58
2022/01/26 08:22:43;;;;;;;35.53;9.05;;;;;;;3.36;76.18;101797.44;5028143;28;20103;-60
2022/01/26 08:25:10;;;;;;;37.20;11.05;;;;;;;3.39;75.41;101802.75;5026459;28;20087;-59
2022/01/26 08:27:41;;;;;;;35.70;10.30;;;;;;;3.40;75.59;101801.94;5029475;28;20053;-58
2022/01/26 08:30:13;;;;;;;34.67;10.13;;;;;;;3.40;76.57;101791.69;5026325;28;21343;-57
2022/01/26 08:32:40;;;;;;;35.55;11.27;;;;;;;3.40;76.57;101797.72;5022436;28;20099;-56
2022/01/26 08:35:08;;;;;;;36.78;10.82;;;;;;;3.41;75.88;101801.16;5023659;28;20667;-58
2022/01/26 08:37:34;;;;;;;34.47;10.60;;;;;;;3.41;76.61;101796.03;5021898;28;20053;-55
2022/01/26 08:40:02;;;;;;;31.95;10.75;;;;;;;3.41;76.40;101793.47;5026453;28;20041;-54
2022/01/26 08:42:29;;;;;;;31.55;10.57;;;;;;;3.40;76.18;101797.72;5028039;28;20095;-58
2022/01/26 08:44:55;;;;;;;36.88;12.88;;;;;;;3.43;76.70;101810.69;5022847;28;20455;-56
2022/01/26 08:47:22;;;;;;;36.17;10.20;;;;;;;3.43;76.05;101810.69;5022934;28;20730;-60
2022/01/26 08:49:49;;;;;;;33.45;11.85;;;;;;;3.43;75.60;101812.38;5024878;28;20123;-59
2022/01/26 08:52:15;;;;;;;34.20;10.57;;;;;;;3.44;76.40;101816.69;5024465;28;20095;-57
2022/01/26 08:54:43;;;;;;;42.60;13.27;;;;;;;3.45;75.94;101815.91;5029404;28;20550;-56
2022/01/26 08:57:09;;;;;;;45.72;12.45;;;;;;;3.46;75.59;101815.09;5020814;28;20057;-59
2022/01/26 08:59:36;;;;;;;42.30;13.77;;;;;;;3.46;76.41;101830.47;5024983;28;20539;-58
2022/01/26 09:02:02;;;;;;;40.35;13.60;;;;;;;3.46;76.07;101835.59;5025086;28;20425;-57
2022/01/26 09:04:29;;;;;;;45.58;12.90;;;;;;;3.50;75.50;101847.78;5025186;28;20042;-58
2022/01/26 09:06:58;;;;;;;46.05;13.02;;;;;;;3.50;76.63;101840.09;5027501;28;20100;-60
2022/01/26 09:09:29;;;;;;;43.53;12.98;;;;;;;3.49;75.50;101835.78;5029137;28;20049;-57
2022/01/26 09:11:58;;;;;;;39.30;11.63;;;;;;;3.51;75.55;101835.84;5024966;28;20049;-57
2022/01/26 09:14:28;;;;;;;37.05;13.07;;;;;;;3.50;76.43;101827.28;5024077;28;20441;-52
2022/01/26 09:16:55;;;;;;;41.80;13.05;;;;;;;3.51;75.32;101839.28;5025586;28;20712;-57
2022/01/26 09:19:27;;;;;;;42.95;13.73;;;;;;;3.51;75.55;101844.41;5024652;28;20132;-57
2022/01/26 09:21:59;;;;;;;41.28;11.40;;;;;;;3.53;76.09;101840.25;5027887;28;20061;-60
2022/01/26 09:24:28;;;;;;;43.33;12.52;;;;;;;3.54;76.47;101839.47;5023809;28;20119;-58
2022/01/26 09:26:55;;;;;;;41.90;12.35;;;;;;;3.54;75.86;101829.22;5020379;28;20041;-56
2022/01/26 09:29:22;;;;;;;37.33;10.85;;;;;;;3.55;75.31;101819.84;5024795;28;20041;-52
2022/01/26 09:31:49;;;;;;;27.23;9.77;;;;;;;3.54;75.32;101821.53;5021817;28;20132;-57
2022/01/26 09:34:18;;;;;;;37.55;11.70;;;;;;;3.62;75.29;101826.19;5027180;28;20547;-61
2022/01/26 09:36:45;;;;;;;33.70;10.82;;;;;;;3.85;76.56;101815.50;5041038;28;20049;-57
2022/01/26 09:39:15;;;;;;;38.65;10.60;;;;;;;4.49;76.49;101812.75;5028378;28;20482;-59
2022/01/26 09:41:44;;;;;;;40.47;10.88;;;;;;;5.37;76.03;101811.00;5019595;28;20049;-52
2022/01/26 09:44:14;;;;;;;40.83;11.98;;;;;;;6.33;74.03;101823.00;5023171;28;20057;-57
2022/01/26 09:46:41;;;;;;;39.90;12.13;;;;;;;7.10;73.12;101825.34;5027255;28;20068;-59
2022/01/26 09:49:08;;;;;;;37.85;12.50;;;;;;;7.96;72.24;101824.31;5028788;28;20053;-59
2022/01/26 09:51:42;;;;;;;31.60;10.60;;;;;;;8.95;71.25;101828.56;5026543;28;20041;-59
2022/01/26 09:54:14;;;;;;;30.48;11.40;;;;;;;9.96;68.92;101820.38;5020090;28;20049;-53
2022/01/26 09:56:43;;;;;;;35.08;12.15;;;;;;;10.87;66.85;101826.25;5023285;28;20490;-57
2022/01/26 09:59:10;;;;;;;30.30;11.52;;;;;;;11.48;65.40;101829.38;5041538;28;20401;-52
2022/01/26 10:01:52;;;;;;;35.78;11.95;;;;;;;11.88;62.00;101826.72;5027668;28;20053;-59
2022/01/26 10:04:22;;;;;;;29.23;11.32;;;;;;;12.50;63.31;101822.75;5022273;28;20474;-57
2022/01/26 10:07:18;;;;;;;29.27;9.82;;;;;;;13.17;61.52;101833.38;5020725;28;20049;-53
2022/01/26 10:15:39;;;;;;;26.33;10.40;;;;;;;14.89;57.40;101828.41;5002215;28;20112;-55
2022/01/26 10:18:14;;;;;;;26.83;10.25;;;;;;;15.41;55.95;101822.69;5003160;28;20077;-56
2022/01/26 10:20:57;;;;;;;30.13;10.85;;;;;;;15.80;53.90;101837.66;5018326;28;20045;-58
2022/01/26 10:23:26;;;;;;;27.60;9.77;;;;;;;16.19;54.00;101838.69;5018943;28;20057;-55
2022/01/26 10:26:06;;;;;;;28.63;9.65;;;;;;;16.49;53.16;101845.72;5025620;28;20096;-56
2022/01/26 10:28:53;;;;;;;25.55;10.10;;;;;;;16.78;50.35;101839.63;5023040;28;20581;-56
2022/01/26 10:31:39;;;;;;;25.75;10.75;;;;;;;17.03;50.86;101835.28;5040948;28;20509;-58
2022/01/26 10:34:11;;;;;;;25.95;10.77;;;;;;;17.08;49.96;101816.97;5023974;28;20056;-57
2022/01/26 10:36:58;;;;;;;28.63;10.20;;;;;;;17.28;49.16;101816.06;5039511;28;20061;-61
2022/01/26 10:39:38;;;;;;;25.83;10.32;;;;;;;17.38;49.17;101823.03;5003296;28;20042;-58
2022/01/26 10:42:09;;;;;;;36.35;13.45;;;;;;;17.57;49.03;101815.09;5004802;28;20103;-54
2022/01/26 10:44:45;;;;;;;26.55;10.55;;;;;;;17.78;47.46;101808.03;5007477;28;20320;-59
2022/01/26 10:47:12;;;;;;;27.77;10.98;;;;;;;17.65;47.30;101808.09;5021207;28;20052;-59
2022/01/26 10:49:55;;;;;;;30.85;13.10;;;;;;;17.56;46.83;101808.13;5006570;28;20044;-59
2022/01/26 10:52:35;;;;;;;33.47;13.15;;;;;;;17.21;46.75;101803.00;5003813;28;20482;-56
2022/01/26 10:55:05;;;;;;;33.53;14.55;;;;;;;16.91;47.27;101806.50;5007136;28;20090;-62
2022/01/26 10:57:34;;;;;;;26.70;9.50;;;;;;;16.55;47.33;101802.16;5000158;28;20050;-57
2022/01/26 11:00:04;;;;;;;31.25;12.40;;;;;;;16.13;47.90;101804.72;5006126;28;20046;-56
2022/01/26 11:02:33;;;;;;;29.05;11.48;;;;;;;15.68;48.66;101801.94;5001763;28;20046;-60
2022/01/26 11:05:00;;;;;;;26.40;9.52;;;;;;;15.09;48.05;101792.03;5005821;28;20049;-56
2022/01/26 11:07:34;;;;;;;29.30;11.27;;;;;;;14.57;49.58;101788.16;5004746;28;20421;-60
2022/01/26 11:10:04;;;;;;;23.80;9.40;;;;;;;14.18;50.21;101787.78;5019259;28;20403;-56
2022/01/26 11:12:31;;;;;;;26.02;10.27;;;;;;;13.92;50.25;101782.31;5005707;28;20057;-59
2022/01/26 11:15:06;;;;;;;30.05;12.32;;;;;;;13.73;51.43;101774.28;5004306;28;20058;-56
2022/01/26 11:17:36;;;;;;;26.05;10.00;;;;;;;13.60;51.09;101776.75;5006230;28;20104;-56
2022/01/26 11:20:30;;;;;;;28.13;9.85;;;;;;;13.23;51.51;101771.00;5005918;28;20046;-58
2022/01/26 11:23:00;;;;;;;22.73;10.48;;;;;;;12.97;51.32;101768.94;5005119;28;20049;-55
2022/01/26 11:25:29;;;;;;;23.95;9.10;;;;;;;12.63;52.14;101774.44;5001538;28;20501;-58
2022/01/26 11:27:56;;;;;;;21.00;8.35;;;;;;;12.33;52.78;101771.34;5007187;28;20456;-56
2022/01/26 11:30:27;;;;;;;27.17;9.10;;;;;;;12.11;54.08;101770.09;5003235;28;20042;-58
2022/01/26 11:32:58;;;;;;;25.25;7.95;;;;;;;11.83;53.00;101775.59;5023333;28;20053;-55
2022/01/26 11:35:30;;;;;;;21.27;7.60;;;;;;;11.65;54.08;101765.72;5026204;28;20677;-58
2022/01/26 11:38:28;;;;;;;30.95;9.27;;;;;;;11.57;54.06;101768.16;5023495;28;20108;-57
2022/01/26 11:46:37;;;;;;;24.58;8.45;;;;;;;10.98;55.33;101760.81;5036099;28;20547;-59
2022/01/26 11:49:07;;;;;;;22.88;8.38;;;;;;;10.86;55.88;101761.41;5026509;28;20053;-59
2022/01/26 11:51:39;;;;;;;23.45;7.80;;;;;;;10.74;55.89;101757.66;5025018;28;20096;-60
2022/01/26 11:54:39;;;;;;;30.15;8.95;;;;;;;10.63;57.16;101753.94;5025575;28;20049;-55
2022/01/26 11:57:13;;;;;;;25.35;8.20;;;;;;;10.49;56.69;101736.34;5026138;28;20102;-58
2022/01/26 11:59:47;;;;;;;26.75;8.15;;;;;;;10.45;57.96;101739.72;5021871;28;20050;-57
2022/01/26 12:02:35;;;;;;;26.35;8.77;;;;;;;10.32;57.31;101732.41;5026211;28;20046;-58
2022/01/26 12:05:07;;;;;;;26.05;9.25;;;;;;;10.25;57.88;101733.97;5022881;28;20041;-58
2022/01/26 12:07:33;;;;;;;23.88;8.18;;;;;;;10.19;57.70;101736.41;5025432;28;20594;-60
2022/01/26 12:10:03;;;;;;;26.83;9.95;;;;;;;10.12;57.82;101731.06;5022545;28;20373;-57
2022/01/26 12:12:30;;;;;;;;;;;;;;;9.89;57.45;101738.22;5032447;28;20389;-59
2022/01/26 12:15:05;;;;;;;15.95;7.03;;;;;;;9.86;58.00;101732.97;5023895;28;19925;-60
2022/01/26 12:17:37;;;;;;;23.58;8.07;;;;;;;9.88;58.45;101731.28;5023662;28;20096;-58
2022/01/26 12:32:02;;;;;;;24.27;9.63;;;;;;;9.88;58.24;101726.13;5017234;28;20471;-59
2022/01/26 12:34:38;;;;;;;30.77;10.30;;;;;;;9.32;58.64;101703.88;5042215;28;20115;-59
2022/01/26 12:37:14;;;;;;;25.50;8.27;;;;;;;9.19;59.21;101693.16;5027064;28;20053;-60
2022/01/26 12:43:01;;;;;;;29.98;7.90;;;;;;;8.96;59.65;101680.44;5028850;28;20053;-60
2022/01/26 12:45:46;;;;;;;14.75;6.18;;;;;;;8.90;60.05;101690.59;5039542;28;20120;-55
2022/01/26 12:48:13;;;;;;;20.27;7.07;;;;;;;8.83;59.69;101678.31;5031257;28;20060;-57
2022/01/26 12:50:41;;;;;;;22.92;7.82;;;;;;;8.79;59.84;101673.88;5027208;28;20049;-58
2022/01/26 12:53:08;;;;;;;37.75;10.57;;;;;;;8.76;60.16;101672.06;5028224;28;20080;-60
2022/01/26 12:55:37;;;;;;;26.77;8.13;;;;;;;8.76;59.66;101676.34;5025211;28;20041;-58
2022/01/26 12:58:06;;;;;;;28.27;9.88;;;;;;;8.76;60.71;101677.25;5029287;28;20045;-61
2022/01/26 13:00:42;;;;;;;25.58;9.40;;;;;;;8.67;60.04;101670.06;5028293;28;20050;-58
2022/01/26 13:03:11;;;;;;;29.35;9.52;;;;;;;8.67;60.52;101667.50;5022309;28;20505;-59
2022/01/26 13:05:39;;;;;;;31.05;9.90;;;;;;;8.67;60.37;101662.31;5028541;28;20049;-59
2022/01/26 13:08:08;;;;;;;41.72;11.50;;;;;;;8.71;60.65;101658.13;5026035;28;20053;-54
2022/01/26 13:10:35;;;;;;;32.30;9.88;;;;;;;8.82;60.30;101649.00;5030457;28;20049;-58
2022/01/26 13:13:12;;;;;;;34.28;9.90;;;;;;;8.89;59.96;101644.03;5025463;28;20111;-56